Austin, TX (78737)

9:25 AM CST on December 19, 2014 (GMT -0600)
Oak Hill - Real Green Weather Network | Change Station
CLOSE
Current Station
Personal Weather Station
Location: Austin, TX
Elevation: 958 ft
Nearby Weather Stations

Elev 958 ft 30.22 °N, 97.89 °W | Updated 84 days ago

Rain
Rain
50 °F
Feels Like 50 °F
N
10
Wind Variable Wind from North
Gusts 13 mph

Today
High -- | Low -- °F
--% Chance of Precip.
Yesterday
High -- | Low -- °F
Precip. -- in
7:22 AM 5:34 PM
Waning Crescent, 7% visible
Pressure 30.13 in
Visibility 10.0 miles
Clouds Mostly Cloudy 1100 ft
Overcast 4600 ft
Dew Point 48 °F
Humidity 95%
Rainfall 0.00 in
Snow Depth Not available.
UV 0 out of 12
Pollen 2.90 out of 12
Air Quality Not available.
Flu Activity Not available.
SPECI KATT 191512Z AUTO VRB04KT 10SM BKN011 OVC046 11/09 A3013 RMK AO2 T01060094

More Conditions Fewer Conditions

Pressure 30.13 in
Visibility 10.0 miles
Clouds Mostly Cloudy 1100 ft
Overcast 4600 ft
Dew Point 48 °F
Humidity 95%
Rainfall 0.00 in
Snow Depth Not available.
UV 0 out of 12
Pollen 2.90 out of 12
Air Quality Not available.
Flu Activity Not available.
SPECI KATT 191512Z AUTO VRB04KT 10SM BKN011 OVC046 11/09 A3013 RMK AO2 T01060094

More Conditions Fewer Conditions

Nowcast | as of 8:55 am CST on December 19, 2014

Through 11 am...scattered showers and an isolated thunderstorm or two will continue for areas east of U.S. Highway 281. This activity is moving northeast around 20 mph. Hourly rainfall amounts will range from one tenth to one quarter inch in locally heavier downpours. Rainfall is expected to lighten through the late morning hours and end by mid afternoon.

×

10-Day Weather Forecast

Almanac

Astronomy

Dec. 19, 2014 Rise Set
Actual Time
Civil Twilight
Nautical Twilight
Astronomical Twilight
Moon
Length of Visible Light
Length of Day
Tomorrow will be .
, % of the Moon is Illuminated

Today's Extremes

State Highs State Lows

Community

WunderPhotos

Upload Photos

1,778,997 photos uploaded!

WunderBlogs® & News

Nearby

Air Quality

  Air Quality AQ Index Pollutant
Not available.

Snow Depth

Station Depth Elevation

Earthquake Activity

City Distance Mag. Time & Date
Minimum magnitude displayed is 2.5.

Coastal Water Temperatures

Place Temperature

Nearby Weather Stations